Time;durP1;ratioP1;P1;durP2;ratioP2;P2;SDS_P1;SDS_P2;PMS_P1;PMS_P2;Temp;Humidity;BMP_temperature;BMP_pressure;BME280_temperature;BME280_humidity;BME280_pressure;Samples;Min_cycle;Max_cycle;Signal;HPM_P1;HPM_P2
2021/09/05 00:00:29;;;;;;;;;;;;;;;20.14;61.90;101768.50;5014860;28;2238;-65
2021/09/05 00:02:55;;;;;;;;;;;;;;;20.13;61.78;101761.38;5014920;28;835;-64
2021/09/05 00:05:20;;;;;;;;;;;;;;;20.14;61.90;101762.22;5014899;28;990;-64
2021/09/05 00:07:45;;;;;;;;;;;;;;;20.12;62.19;101765.06;5014672;28;1060;-64
2021/09/05 00:10:10;;;;;;;;;;;;;;;20.11;62.09;101766.06;5014966;28;1934;-63
2021/09/05 00:12:35;;;;;;;;;;;;;;;20.11;61.72;101766.06;5015088;28;1065;-63
2021/09/05 00:15:00;;;;;;;;;;;;;;;20.10;61.61;101758.94;5014863;28;906;-61
2021/09/05 00:17:25;;;;;;;;;;;;;;;20.09;62.20;101765.34;5014750;28;784;-62
2021/09/05 00:19:50;;;;;;;;;;;;;;;20.07;62.18;101764.63;5017529;28;1046;-62
2021/09/05 00:22:15;;;;;;;;;;;;;;;20.08;61.80;101766.34;5018505;28;899;-61
2021/09/05 00:24:40;;;;;;;;;;;;;;;20.06;61.49;101763.75;5018334;28;997;-62
2021/09/05 00:27:05;;;;;;;;;;;;;;;20.05;62.11;101759.38;5018463;28;807;-62
2021/09/05 00:29:30;;;;;;;;;;;;;;;20.05;61.08;101761.22;5018671;28;1961;-62
2021/09/05 00:31:56;;;;;;;;;;;;;;;20.04;61.83;101754.94;5019151;28;917;-62
2021/09/05 00:34:21;;;;;;;;;;;;;;;20.04;61.39;101756.81;5018225;28;811;-62
2021/09/05 00:36:46;;;;;;;;;;;;;;;20.03;61.48;101758.66;5018307;28;792;-62
2021/09/05 00:39:11;;;;;;;;;;;;;;;20.03;61.02;101769.47;5017948;28;1347;-62
2021/09/05 00:41:36;;;;;;;;;;;;;;;20.01;62.07;101759.78;5018752;28;998;-62
2021/09/05 00:44:01;;;;;;;;;;;;;;;20.00;60.92;101758.06;5018371;28;903;-63
2021/09/05 00:46:26;;;;;;;;;;;;;;;20.00;61.16;101758.06;5017991;28;851;-63
2021/09/05 00:48:51;;;;;;;;;;;;;;;20.00;61.01;101758.06;5017947;28;1906;-62
2021/09/05 00:51:16;;;;;;;;;;;;;;;19.99;61.51;101759.91;5018156;28;1024;-62
2021/09/05 00:53:41;;;;;;;;;;;;;;;19.99;61.87;101756.34;5017890;28;1017;-63
2021/09/05 00:56:06;;;;;;;;;;;;;;;19.97;60.95;101753.78;5018323;28;851;-62
2021/09/05 00:58:34;;;;;;;;;;;;;;;19.96;61.77;101751.22;5016558;28;914;-63
2021/09/05 01:00:59;;;;;;;;;;;;;;;19.96;61.25;101751.22;5017792;28;1676;-62
2021/09/05 01:03:24;;;;;;;;;;;;;;;19.95;61.56;101750.34;5018073;28;846;-62
2021/09/05 01:05:49;;;;;;;;;;;;;;;19.94;61.52;101764.88;5017761;28;978;-62
2021/09/05 01:08:14;;;;;;;;;;;;;;;19.93;61.48;101749.63;5017558;28;1071;-63
2021/09/05 01:10:39;;;;;;;;;;;;;;;19.92;61.15;101755.19;5016177;28;1906;-63
2021/09/05 01:13:04;;;;;;;;;;;;;;;19.92;62.07;101755.19;5017887;28;986;-63
2021/09/05 01:15:29;;;;;;;;;;;;;;;19.90;61.71;101757.16;5017854;28;997;-63
2021/09/05 01:17:54;;;;;;;;;;;;;;;19.90;61.34;101755.31;5017668;28;808;-63
2021/09/05 01:20:19;;;;;;;;;;;;;;;19.90;61.32;101758.03;5017436;28;1053;-62
2021/09/05 01:22:44;;;;;;;;;;;;;;;19.90;61.55;101752.63;5017571;28;1103;-63
2021/09/05 01:25:10;;;;;;;;;;;;;;;19.90;60.95;101762.56;5017282;28;804;-62
2021/09/05 01:27:35;;;;;;;;;;;;;;;19.88;61.55;101757.34;5017322;28;843;-63
2021/09/05 01:30:00;;;;;;;;;;;;;;;19.88;60.93;101760.03;5016979;28;1902;-63
2021/09/05 01:32:25;;;;;;;;;;;;;;;19.86;60.93;101756.63;5017127;28;788;-63
2021/09/05 01:34:50;;;;;;;;;;;;;;;19.87;61.15;101757.47;5017059;28;780;-63
2021/09/05 01:37:15;;;;;;;;;;;;;;;19.85;61.18;101754.91;5017259;28;1057;-63
2021/09/05 01:39:40;;;;;;;;;;;;;;;19.86;60.93;101761.16;5016962;28;989;-64
2021/09/05 01:42:05;;;;;;;;;;;;;;;19.84;61.83;101758.59;5017222;28;950;-64
2021/09/05 01:44:30;;;;;;;;;;;;;;;19.83;60.89;101762.28;5017191;28;1037;-64
2021/09/05 01:46:55;;;;;;;;;;;;;;;19.81;61.63;101766.97;5017037;28;942;-65
2021/09/05 01:49:21;;;;;;;;;;;;;;;19.82;61.02;101759.72;5015808;28;1902;-64
2021/09/05 01:51:46;;;;;;;;;;;;;;;19.80;61.04;101762.56;5017045;28;804;-62
2021/09/05 01:54:11;;;;;;;;;;;;;;;19.80;60.56;101764.41;5016853;28;985;-62
2021/09/05 01:56:36;;;;;;;;;;;;;;;19.78;61.29;101761.84;5016694;28;1160;-63
2021/09/05 01:59:01;;;;;;;;;;;;;;;19.77;61.30;101763.69;5016711;28;839;-62
2021/09/05 02:01:26;;;;;;;;;;;;;;;19.77;60.45;101763.69;5016973;28;1345;-63
2021/09/05 02:03:51;;;;;;;;;;;;;;;19.77;60.55;101765.53;5016544;28;820;-62
2021/09/05 02:06:16;;;;;;;;;;;;;;;19.76;60.66;101770.09;5016655;28;927;-62
2021/09/05 02:08:41;;;;;;;;;;;;;;;19.75;61.13;101771.06;5016462;28;1896;-62
2021/09/05 02:11:06;;;;;;;;;;;;;;;19.76;61.31;101774.63;5016295;28;998;-64
2021/09/05 02:13:32;;;;;;;;;;;;;;;19.74;60.73;101772.06;5016617;28;907;-64
2021/09/05 02:15:57;;;;;;;;;;;;;;;19.74;61.33;101777.47;5016715;28;803;-64
2021/09/05 02:18:22;;;;;;;;;;;;;;;19.74;61.35;101779.31;5016389;28;781;-61
2021/09/05 02:20:47;;;;;;;;;;;;;;;19.74;60.80;101784.72;5016360;28;780;-61
2021/09/05 02:23:12;;;;;;;;;;;;;;;19.72;60.65;101782.16;5016281;28;1045;-62
2021/09/05 02:25:37;;;;;;;;;;;;;;;19.71;61.55;101785.84;5016373;28;1028;-61
2021/09/05 02:28:02;;;;;;;;;;;;;;;19.71;61.00;101779.59;5016120;28;820;-61
2021/09/05 02:30:27;;;;;;;;;;;;;;;19.69;61.23;101785.16;5016246;28;1949;-61
2021/09/05 02:32:52;;;;;;;;;;;;;;;19.69;61.52;101785.16;5016205;28;887;-61
2021/09/05 02:35:17;;;;;;;;;;;;;;;19.67;60.48;101781.72;5016040;28;832;-61
2021/09/05 02:37:42;;;;;;;;;;;;;;;19.66;60.94;101780.03;5016334;28;982;-60
2021/09/05 02:40:07;;;;;;;;;;;;;;;19.67;61.72;101786.28;5015807;28;982;-66
2021/09/05 02:42:33;;;;;;;;;;;;;;;19.66;61.35;101785.44;5015209;28;968;-66
2021/09/05 02:44:58;;;;;;;;;;;;;;;19.65;60.96;101775.59;5015746;28;827;-66
2021/09/05 02:47:23;;;;;;;;;;;;;;;19.65;60.73;101774.75;5015760;28;799;-65
2021/09/05 02:49:48;;;;;;;;;;;;;;;19.62;61.66;101775.88;5015939;28;1902;-65
2021/09/05 02:52:13;;;;;;;;;;;;;;;19.63;60.88;101774.88;5015828;28;902;-65
2021/09/05 02:54:39;;;;;;;;;;;;;;;19.62;60.83;101778.56;5015687;28;973;-64
2021/09/05 02:57:04;;;;;;;;;;;;;;;19.62;60.67;101780.41;5015844;28;993;-65
2021/09/05 02:59:29;;;;;;;;;;;;;;;19.62;61.48;101775.88;5015721;28;1323;-64
2021/09/05 03:01:54;;;;;;;;;;;;;;;19.60;61.31;101777.84;5015593;28;796;-63
2021/09/05 03:04:19;;;;;;;;;;;;;;;19.59;60.73;101776.13;5015695;28;776;-63
2021/09/05 03:06:44;;;;;;;;;;;;;;;19.59;61.16;101776.13;5015704;28;1696;-63
2021/09/05 03:09:09;;;;;;;;;;;;;;;19.57;61.25;101775.41;5015415;28;1914;-63
2021/09/05 03:11:34;;;;;;;;;;;;;;;19.56;60.71;101776.41;5015210;28;886;-63
2021/09/05 03:13:59;;;;;;;;;;;;;;;19.56;61.19;101779.09;5015794;28;990;-63
2021/09/05 03:16:24;;;;;;;;;;;;;;;19.58;60.96;101773.56;5015668;28;910;-64
2021/09/05 03:18:49;;;;;;;;;;;;;;;19.56;60.61;101779.09;5015235;28;1156;-65
2021/09/05 03:21:14;;;;;;;;;;;;;;;19.55;61.10;101785.50;5015331;28;1083;-68
2021/09/05 03:23:39;;;;;;;;;;;;;;;19.54;60.66;101777.53;5015272;28;898;-63
2021/09/05 03:26:04;;;;;;;;;;;;;;;19.52;61.09;101780.38;5015196;28;978;-64
2021/09/05 03:28:30;;;;;;;;;;;;;;;19.52;60.62;101777.69;5015387;28;1005;-63
2021/09/05 03:30:55;;;;;;;;;;;;;;;19.52;61.06;101772.28;5015274;28;1955;-63
2021/09/05 03:33:20;;;;;;;;;;;;;;;19.50;60.58;101776.97;5015498;28;998;-62
2021/09/05 03:35:45;;;;;;;;;;;;;;;19.49;60.85;101775.22;5015406;28;997;-66
2021/09/05 03:38:10;;;;;;;;;;;;;;;19.48;60.96;101773.50;5015143;28;906;-67
2021/09/05 03:40:35;;;;;;;;;;;;;;;19.48;60.99;101778.91;5014876;28;1310;-64
2021/09/05 03:43:00;;;;;;;;;;;;;;;19.49;61.12;101777.06;5014836;28;811;-63
2021/09/05 03:45:25;;;;;;;;;;;;;;;19.48;60.66;101783.44;5014975;28;820;-63
2021/09/05 03:47:50;;;;;;;;;;;;;;;19.46;61.12;101772.78;5015266;28;990;-63
2021/09/05 03:50:15;;;;;;;;;;;;;;;19.46;60.38;101775.47;5015006;28;1956;-63
2021/09/05 03:52:42;;;;;;;;;;;;;;;19.43;61.00;101770.34;5014816;28;769;-64
2021/09/05 03:55:07;;;;;;;;;;;;;;;19.44;60.53;101774.75;5020454;28;832;-64
2021/09/05 03:57:32;;;;;;;;;;;;;;;19.43;61.08;101770.34;5021270;28;982;-64
2021/09/05 03:59:58;;;;;;;;;;;;;;;19.43;60.90;101770.34;5021371;28;1252;-64
2021/09/05 04:02:23;;;;;;;;;;;;;;;19.43;60.38;101773.03;5021361;28;851;-64
2021/09/05 04:04:48;;;;;;;;;;;;;;;19.42;60.78;101777.59;5021456;28;1010;-63
2021/09/05 04:07:17;;;;;;;;;;;;;;;19.41;61.22;101772.31;5021297;28;863;-62
2021/09/05 04:12:26;;;;;;;;;;;;;;;19.41;60.76;101777.72;5021208;28;638;-62
2021/09/05 04:14:51;;;;;;;;;;;;;;;19.39;60.62;101774.28;5021219;28;1005;-62
2021/09/05 04:17:16;;;;;;;;;;;;;;;19.37;61.21;101768.16;5020103;28;1404;-62
2021/09/05 04:19:41;;;;;;;;;;;;;;;19.33;60.90;101777.53;5021261;28;812;-62
2021/09/05 04:22:06;;;;;;;;;;;;;;;19.34;60.19;101773.84;5021217;28;839;-62
2021/09/05 04:24:31;;;;;;;;;;;;;;;19.37;61.14;101781.66;5020923;28;1010;-62
2021/09/05 04:26:56;;;;;;;;;;;;;;;19.34;60.41;101781.97;5021268;28;985;-62
2021/09/05 04:29:21;;;;;;;;;;;;;;;19.33;60.96;101777.53;5021514;28;1898;-62
2021/09/05 04:31:47;;;;;;;;;;;;;;;19.27;60.84;101780.78;5021301;28;907;-61
2021/09/05 04:34:12;;;;;;;;;;;;;;;19.30;60.49;101772.41;5021000;28;1236;-62
2021/09/05 04:36:37;;;;;;;;;;;;;;;19.30;60.67;101780.50;5021130;28;838;-62
2021/09/05 04:39:02;;;;;;;;;;;;;;;19.30;61.05;101778.66;5020950;28;882;-63
2021/09/05 04:41:27;;;;;;;;;;;;;;;19.31;61.09;101787.63;5020973;28;831;-63
2021/09/05 04:43:52;;;;;;;;;;;;;;;19.29;61.24;101778.78;5020882;28;835;-64
2021/09/05 04:46:17;;;;;;;;;;;;;;;19.29;61.11;101789.59;5021272;28;1244;-64
2021/09/05 04:48:42;;;;;;;;;;;;;;;19.27;60.89;101786.16;5021183;28;1081;-63
2021/09/05 04:51:07;;;;;;;;;;;;;;;19.28;60.25;101793.28;5020889;28;1905;-65
2021/09/05 04:53:32;;;;;;;;;;;;;;;19.27;61.02;101791.56;5020877;28;1093;-65
2021/09/05 04:55:58;;;;;;;;;;;;;;;19.25;61.11;101793.56;5020791;28;945;-64
2021/09/05 04:58:23;;;;;;;;;;;;;;;19.24;60.46;101797.25;5020865;28;835;-65
2021/09/05 05:00:48;;;;;;;;;;;;;;;19.23;61.26;101788.28;5021259;28;1611;-64
2021/09/05 05:03:13;;;;;;;;;;;;;;;19.22;60.83;101799.22;5020892;28;854;-63
2021/09/05 05:05:38;;;;;;;;;;;;;;;19.22;60.59;101801.91;5018378;28;883;-63
2021/09/05 05:08:03;;;;;;;;;;;;;;;19.22;60.93;101805.47;5017640;28;1018;-63
2021/09/05 05:10:28;;;;;;;;;;;;;;;19.24;60.97;101799.94;5017443;28;1918;-64
2021/09/05 05:12:53;;;;;;;;;;;;;;;19.20;61.10;101806.59;5017524;28;1068;-63
2021/09/05 05:15:18;;;;;;;;;;;;;;;19.20;60.89;101804.75;5017884;28;1069;-62
2021/09/05 05:17:43;;;;;;;;;;;;;;;19.22;60.72;101810.03;5017804;28;851;-62
2021/09/05 05:20:11;;;;;;;;;;;;;;;19.21;61.13;101806.47;5017649;28;1061;-62
2021/09/05 05:22:36;;;;;;;;;;;;;;;19.18;60.42;101801.31;5017477;28;855;-63
2021/09/05 05:25:01;;;;;;;;;;;;;;;19.15;61.15;101804.31;5017139;28;1073;-63
2021/09/05 05:27:26;;;;;;;;;;;;;;;19.19;60.71;101800.34;5017765;28;970;-62
2021/09/05 05:29:51;;;;;;;;;;;;;;;19.19;60.69;101811.13;5017183;28;1894;-62
2021/09/05 05:32:16;;;;;;;;;;;;;;;19.19;61.04;101818.38;5017520;28;1018;-63
2021/09/05 05:34:41;;;;;;;;;;;;;;;19.17;60.31;101809.59;5017484;28;832;-63
2021/09/05 05:37:07;;;;;;;;;;;;;;;19.15;60.60;101809.72;5017498;28;1102;-63
2021/09/05 05:39:32;;;;;;;;;;;;;;;19.11;60.20;101810.09;5017038;28;839;-62
2021/09/05 05:41:57;;;;;;;;;;;;;;;19.07;60.45;101804.97;5017008;28;832;-63
2021/09/05 05:44:22;;;;;;;;;;;;;;;19.09;60.80;101804.81;5017021;28;1022;-62
2021/09/05 05:46:47;;;;;;;;;;;;;;;19.14;60.38;101804.44;5017135;28;780;-62
2021/09/05 05:49:12;;;;;;;;;;;;;;;19.15;60.53;101809.72;5016959;28;1949;-63
2021/09/05 05:51:37;;;;;;;;;;;;;;;19.12;60.56;101806.41;5017065;28;819;-62
2021/09/05 05:54:02;;;;;;;;;;;;;;;19.12;61.10;101809.13;5017084;28;1022;-62
2021/09/05 05:56:27;;;;;;;;;;;;;;;19.18;60.74;101813.97;5014091;28;2641;-62
2021/09/05 05:58:52;;;;;;;;;;;;;;;19.17;60.72;101817.69;5014580;28;1584;-65
2021/09/05 06:01:18;;;;;;;;;;;;;;;19.14;61.15;101823.34;5015947;28;1610;-66
2021/09/05 06:03:43;;;;;;;;;;;;;;;19.16;61.47;101816.84;5016389;28;1568;-66
2021/09/05 06:06:08;;;;;;;;;;;;;;;19.21;61.06;101819.97;5016199;28;1479;-63
2021/09/05 06:08:33;;;;;;;;;;;;;;;19.23;62.01;101823.41;5015646;28;1632;-63
2021/09/05 06:10:58;;;;;;;;;;;;;;;19.25;61.35;101825.97;5015166;28;1914;-63
2021/09/05 06:13:23;;;;;;;;;;;;;;;19.25;62.44;101823.28;5016281;28;1548;-63
2021/09/05 06:15:48;;;;;;;;;;;;;;;19.21;62.20;101819.13;5016271;28;1929;-63
2021/09/05 06:18:13;;;;;;;;;;;;;;;19.20;61.98;101822.81;5015744;28;1719;-60
2021/09/05 06:20:38;;;;;;;;;;;;;;;19.21;62.00;101822.69;5015305;28;1266;-62
2021/09/05 06:23:03;;;;;;;;;;;;;;;19.25;61.61;101820.56;5014840;28;1419;-65
2021/09/05 06:25:28;;;;;;;;;;;;;;;19.25;61.42;101823.28;5013266;28;1825;-64
2021/09/05 06:27:54;;;;;;;;;;;;;;;19.25;61.87;101825.97;5013468;28;1524;-64
2021/09/05 06:30:19;;;;;;;;;;;;;;;19.27;62.56;101824.00;5012945;28;1957;-64
2021/09/05 06:32:44;;;;;;;;;;;;;;;19.26;61.80;101822.28;5013029;28;1381;-64
2021/09/05 06:35:09;;;;;;;;;;;;;;;19.28;61.98;101823.88;5011241;28;1557;-64
2021/09/05 06:37:34;;;;;;;;;;;;;;;19.26;62.23;101825.00;5013903;28;1423;-62
2021/09/05 06:39:59;;;;;;;;;;;;;;;19.27;61.52;101824.00;5014141;28;1684;-62
2021/09/05 06:42:24;;;;;;;;;;;;;;;19.26;61.63;101827.69;5016077;28;1783;-63
2021/09/05 06:44:49;;;;;;;;;;;;;;;19.25;62.34;101836.78;5015888;28;1976;-63
2021/09/05 06:47:14;;;;;;;;;;;;;;;19.26;62.30;101838.50;5015979;28;1723;-62
2021/09/05 06:49:39;;;;;;;;;;;;;;;19.25;61.80;101839.50;5014776;28;1987;-62
2021/09/05 06:52:04;;;;;;;;;;;;;;;19.27;61.70;101840.22;5014593;28;1728;-62
2021/09/05 06:54:29;;;;;;;;;;;;;;;19.27;61.67;101846.50;5015257;28;1806;-62
2021/09/05 06:56:54;;;;;;;;;;;;;;;19.27;61.83;101851.03;5014886;28;2004;-62
2021/09/05 06:59:20;;;;;;;;;;;;;;;19.28;61.41;101847.34;5014525;28;1503;-62
2021/09/05 07:01:45;;;;;;;;;;;;;;;19.27;62.19;101846.50;5013052;28;1965;-62
2021/09/05 07:04:11;;;;;;;;;;;;;;;19.27;62.08;101851.03;5015166;28;1732;-63
2021/09/05 07:06:36;;;;;;;;;;;;;;;19.27;61.84;101851.91;5015794;28;1605;-62
2021/09/05 07:09:02;;;;;;;;;;;;;;;19.25;61.82;101858.41;5014322;28;1964;-62
2021/09/05 07:11:27;;;;;;;;;;;;;;;19.21;61.32;101851.56;5015540;28;1841;-62
2021/09/05 07:13:52;;;;;;;;;;;;;;;19.20;61.75;101856.09;5015333;28;1710;-62
2021/09/05 07:16:17;;;;;;;;;;;;;;;19.23;62.22;101863.09;5015827;28;2045;-62
2021/09/05 07:18:42;;;;;;;;;;;;;;;19.21;61.18;101862.34;5014405;28;1661;-62
2021/09/05 07:21:07;;;;;;;;;;;;;;;19.19;62.11;101861.63;5014671;28;1666;-62
2021/09/05 07:23:32;;;;;;;;;;;;;;;19.18;61.41;101870.72;5015331;28;1872;-62
2021/09/05 07:25:57;;;;;;;;;;;;;;;19.17;61.69;101871.75;5015073;28;1604;-62
2021/09/05 07:28:22;;;;;;;;;;;;;;;19.13;61.52;101867.56;5014738;28;1800;-62
2021/09/05 07:30:47;;;;;;;;;;;;;;;19.17;61.16;101867.16;5016546;28;2005;-62
2021/09/05 07:33:13;;;;;;;;;;;;;;;19.14;60.84;101872.00;5014487;28;1812;-62
2021/09/05 07:35:38;;;;;;;;;;;;;;;19.16;61.66;101873.59;5014961;28;1649;-62
2021/09/05 07:38:03;;;;;;;;;;;;;;;19.20;61.42;101869.59;5014381;28;1626;-63
2021/09/05 07:40:28;;;;;;;;;;;;;;;19.21;61.91;101875.88;5014873;28;1730;-63
2021/09/05 07:42:53;;;;;;;;;;;;;;;19.23;61.46;101887.41;5015014;28;1491;-63
2021/09/05 07:45:18;;;;;;;;;;;;;;;19.24;61.20;101890.00;5015363;28;1672;-63
2021/09/05 07:47:43;;;;;;;;;;;;;;;19.21;61.54;101889.38;5014976;28;1617;-63
2021/09/05 07:50:08;;;;;;;;;;;;;;;19.16;61.23;101889.81;5014614;28;1907;-63
2021/09/05 07:52:33;;;;;;;;;;;;;;;19.20;61.50;101893.94;5013358;28;1813;-62
2021/09/05 07:54:58;;;;;;;;;;;;;;;19.21;60.74;101900.19;5012764;28;1571;-62
2021/09/05 07:57:23;;;;;;;;;;;;;;;19.19;61.43;101897.63;5013709;28;2124;-62
2021/09/05 07:59:48;;;;;;;;;;;;;;;19.20;61.14;101909.28;5014462;28;1973;-62
2021/09/05 08:02:13;;;;;;;;;;;;;;;19.21;61.15;101903.75;5014161;28;1909;-62
2021/09/05 08:04:38;;;;;;;;;;;;;;;19.19;60.70;101907.56;5014573;28;1910;-62
2021/09/05 08:07:04;;;;;;;;;;;;;;;19.16;61.44;101911.41;5013383;28;1467;-62
2021/09/05 08:09:29;;;;;;;;;;;;;;;19.18;61.42;101909.41;5009192;28;1910;-62
2021/09/05 08:11:54;;;;;;;;;;;;;;;19.22;60.42;101907.31;5013589;28;1436;-62
2021/09/05 08:14:19;;;;;;;;;;;;;;;19.21;60.96;101917.25;5014310;28;1847;-62
2021/09/05 08:16:44;;;;;;;;;;;;;;;19.24;60.92;101916.16;5014252;28;1784;-62
2021/09/05 08:19:09;;;;;;;;;;;;;;;19.22;61.23;101918.97;5011978;28;1775;-62
2021/09/05 08:21:35;;;;;;;;;;;;;;;19.23;60.88;101931.50;5013667;28;1543;-62
2021/09/05 08:24:00;;;;;;;;;;;;;;;19.23;60.70;101922.53;5013484;28;1674;-62
2021/09/05 08:26:25;;;;;;;;;;;;;;;19.21;60.61;101922.66;5014271;28;1905;-62
2021/09/05 08:28:51;;;;;;;;;;;;;;;19.24;60.95;101924.25;5012885;28;1572;-62
2021/09/05 08:31:16;;;;;;;;;;;;;;;19.21;60.14;101921.81;5013313;28;1906;-62
2021/09/05 08:33:41;;;;;;;;;;;;;;;19.15;60.84;101928.63;5013468;28;1956;-62
2021/09/05 08:36:06;;;;;;;;;;;;;;;19.15;60.04;101933.16;5014016;28;1620;-62
2021/09/05 08:38:31;;;;;;;;;;;;;;;19.15;60.25;101933.16;5013903;28;1850;-62
2021/09/05 08:40:56;;;;;;;;;;;;;;;19.20;60.25;101942.56;5015677;28;1766;-62
2021/09/05 08:43:21;;;;;;;;;;;;;;;19.22;60.80;101940.59;5018020;28;1908;-62
2021/09/05 08:45:48;;;;;;;;;;;;;;;19.18;59.80;101949.09;5017861;28;1587;-62
2021/09/05 08:48:14;;;;;;;;;;;;;;;19.12;60.50;101946.91;5018348;28;2040;-62
2021/09/05 08:50:39;;;;;;;;;;;;;;;19.11;59.47;101943.38;5018496;28;1895;-62
2021/09/05 08:53:04;;;;;;;;;;;;;;;19.12;59.92;101930.72;5018399;28;1090;-63
2021/09/05 08:55:29;;;;;;;;;;;;;;;19.14;60.96;101936.84;5017958;28;1034;-63
2021/09/05 08:57:54;;;;;;;;;;;;;;;19.17;60.27;101936.59;5018260;28;918;-62
2021/09/05 09:00:19;;;;;;;;;;;;;;;19.18;60.65;101932.88;5018080;28;1621;-63
2021/09/05 09:02:44;;;;;;;;;;;;;;;19.18;59.86;101932.88;5018098;28;1733;-63
2021/09/05 09:05:09;;;;;;;;;;;;;;;19.07;60.24;101925.69;5018481;28;926;-66
2021/09/05 09:07:34;;;;;;;;;;;;;;;19.14;60.88;101926.03;5018367;28;973;-67
2021/09/05 09:10:01;;;;;;;;;;;;;;;19.32;65.22;101921.78;5018250;28;1915;-65
2021/09/05 09:12:26;;;;;;;;;;;;;;;19.30;63.35;101927.31;5018250;28;894;-66
2021/09/05 09:14:51;;;;;;;;;;;;;;;19.26;61.88;101942.06;5018076;28;1053;-65
2021/09/05 09:17:16;;;;;;;;;;;;;;;19.19;62.16;101935.44;5017908;28;1140;-61
2021/09/05 09:19:41;;;;;;;;;;;;;;;19.12;61.48;101925.31;5017683;28;835;-63
2021/09/05 09:22:06;;;;;;;;;;;;;;;19.08;61.38;101932.81;5017564;28;1751;-63
2021/09/05 09:24:31;;;;;;;;;;;;;;;19.15;61.46;101928.63;5017391;28;1701;-63
2021/09/05 09:26:56;;;;;;;;;;;;;;;19.22;62.02;101924.38;5017813;28;1773;-63
2021/09/05 09:29:21;;;;;;;;;;;;;;;19.23;61.38;101920.69;5017515;28;1898;-63
2021/09/05 09:31:47;;;;;;;;;;;;;;;19.23;62.18;101936.91;5017710;28;993;-63
2021/09/05 09:34:12;;;;;;;;;;;;;;;19.25;61.47;101928.69;5017235;28;804;-63
2021/09/05 09:36:37;;;;;;;;;;;;;;;19.21;61.62;101935.31;5017540;28;1255;-62
2021/09/05 09:39:02;;;;;;;;;;;;;;;19.22;61.68;101937.03;5015720;28;1375;-63
2021/09/05 09:41:28;;;;;;;;;;;;;;;19.24;61.60;101933.22;5016834;28;1614;-63
2021/09/05 09:43:53;;;;;;;;;;;;;;;19.24;62.54;101938.63;5017692;28;1629;-63
2021/09/05 09:46:18;;;;;;;;;;;;;;;19.23;61.19;101941.47;5017003;28;816;-63
2021/09/05 09:48:44;;;;;;;;;;;;;;;19.25;61.42;101936.78;5017085;28;915;-63
2021/09/05 09:51:09;;;;;;;;;;;;;;;19.24;61.55;101937.78;5015294;28;1894;-63
2021/09/05 09:53:34;;;;;;;;;;;;;;;19.23;60.93;101934.22;5016666;28;998;-63
2021/09/05 09:55:59;;;;;;;;;;;;;;;19.18;60.56;101931.03;5016623;28;903;-63
2021/09/05 09:58:24;;;;;;;;;;;;;;;19.18;60.90;101933.72;5016653;28;1699;-63
2021/09/05 10:00:49;;;;;;;;;;;;;;;19.25;60.71;101928.69;5016993;28;1148;-63
2021/09/05 10:03:14;;;;;;;;;;;;;;;19.24;60.72;101924.25;5016706;28;1002;-63
2021/09/05 10:05:39;;;;;;;;;;;;;;;19.27;61.17;101932.13;5016673;28;1505;-63
2021/09/05 10:08:04;;;;;;;;;;;;;;;19.22;60.55;101926.22;5016537;28;878;-63
2021/09/05 10:10:29;;;;;;;;;;;;;;;19.24;61.15;101929.66;5016534;28;1910;-63
2021/09/05 10:12:54;;;;;;;;;;;;;;;19.27;60.57;101926.72;5016714;28;906;-63
2021/09/05 10:15:19;;;;;;;;;;;;;;;19.27;60.75;101926.72;5016521;28;843;-63
2021/09/05 10:17:44;;;;;;;;;;;;;;;19.29;60.77;101920.19;5016296;28;1572;-63
2021/09/05 10:20:09;;;;;;;;;;;;;;;19.26;60.90;101930.41;5016487;28;906;-62
2021/09/05 10:22:35;;;;;;;;;;;;;;;19.27;60.54;101932.97;5016480;28;795;-62
2021/09/05 10:25:00;;;;;;;;;;;;;;;19.26;60.30;101946.63;5016518;28;839;-62
2021/09/05 10:27:25;;;;;;;;;;;;;;;19.30;60.96;101937.28;5016230;28;1005;-62
2021/09/05 10:29:50;;;;;;;;;;;;;;;19.29;60.75;101944.53;5016243;28;1957;-62
2021/09/05 10:32:15;;;;;;;;;;;;;;;19.27;60.87;101938.38;5016177;28;1018;-62
2021/09/05 10:34:40;;;;;;;;;;;;;;;19.27;61.18;101932.97;5016258;28;998;-62
2021/09/05 10:37:05;;;;;;;;;;;;;;;19.32;60.31;101928.06;5016168;28;1638;-62
2021/09/05 10:39:30;;;;;;;;;;;;;;;19.33;60.42;101931.59;5015758;28;1654;-63
2021/09/05 10:41:55;;;;;;;;;;;;;;;19.28;60.68;101928.44;5016035;28;958;-64
2021/09/05 10:44:20;;;;;;;;;;;;;;;19.31;60.60;101917.38;5015934;28;875;-61
2021/09/05 10:46:46;;;;;;;;;;;;;;;19.30;60.39;101916.50;5016198;28;994;-62
2021/09/05 10:49:11;;;;;;;;;;;;;;;19.35;60.90;101919.66;5015947;28;1963;-62
2021/09/05 10:51:39;;;;;;;;;;;;;;;19.34;60.55;101911.69;5015920;28;883;-62
2021/09/05 10:54:04;;;;;;;;;;;;;;;19.38;59.81;101915.84;5015912;28;776;-62
2021/09/05 10:56:29;;;;;;;;;;;;;;;19.39;60.63;101915.72;5015636;28;1187;-63
2021/09/05 10:58:54;;;;;;;;;;;;;;;19.41;59.90;101918.28;5015650;28;1570;-62
2021/09/05 11:01:19;;;;;;;;;;;;;;;19.40;60.48;101905.75;5015928;28;1342;-62
2021/09/05 11:03:45;;;;;;;;;;;;;;;19.40;60.60;101916.56;5014934;28;859;-62
2021/09/05 11:06:10;;;;;;;;;;;;;;;19.39;60.65;101909.44;5015496;28;1691;-62
2021/09/05 11:08:35;;;;;;;;;;;;;;;19.37;60.41;101914.97;5015443;28;1018;-65
2021/09/05 11:11:00;;;;;;;;;;;;;;;19.43;60.38;101911.75;5015352;28;1969;-63
2021/09/05 11:13:25;;;;;;;;;;;;;;;19.48;60.00;101905.97;5015580;28;1018;-62
2021/09/05 11:15:50;;;;;;;;;;;;;;;19.53;59.78;101909.16;5015395;28;875;-62
2021/09/05 11:18:15;;;;;;;;;;;;;;;19.49;59.75;101909.53;5015190;28;1590;-62
2021/09/05 11:20:40;;;;;;;;;;;;;;;19.53;60.02;101909.16;5015260;28;922;-62
2021/09/05 11:23:05;;;;;;;;;;;;;;;19.52;60.16;101909.31;5015614;28;787;-62
2021/09/05 11:25:31;;;;;;;;;;;;;;;19.50;59.89;101906.72;5015328;28;1014;-62
2021/09/05 11:27:56;;;;;;;;;;;;;;;19.48;59.66;101903.28;5015028;28;879;-62
2021/09/05 11:30:21;;;;;;;;;;;;;;;19.50;59.04;101912.13;5015035;28;1890;-62
2021/09/05 11:32:46;;;;;;;;;;;;;;;19.50;59.33;101909.44;5015350;28;843;-63
2021/09/05 11:35:11;;;;;;;;;;;;;;;19.45;59.25;101913.47;5015041;28;800;-62
2021/09/05 11:37:36;;;;;;;;;;;;;;;19.46;58.64;101907.09;5014991;28;1634;-62
2021/09/05 11:40:01;;;;;;;;;;;;;;;19.47;59.25;101906.97;5014774;28;1655;-62
2021/09/05 11:42:27;;;;;;;;;;;;;;;19.54;58.56;101899.19;5014878;28;823;-62
2021/09/05 11:44:52;;;;;;;;;;;;;;;19.51;58.76;101902.19;5015008;28;808;-61
2021/09/05 11:47:17;;;;;;;;;;;;;;;19.49;58.33;101904.97;5014949;28;863;-62
2021/09/05 11:49:42;;;;;;;;;;;;;;;19.58;57.96;101901.50;5014772;28;1886;-63
2021/09/05 11:52:07;;;;;;;;;;;;;;;19.64;58.50;101901.00;5014910;28;1018;-62
2021/09/05 11:54:32;;;;;;;;;;;;;;;19.65;58.50;101896.44;5014881;28;954;-62
2021/09/05 11:56:57;;;;;;;;;;;;;;;19.64;59.04;101902.84;5014592;28;1557;-62
2021/09/05 11:59:22;;;;;;;;;;;;;;;19.68;58.88;101898.88;5014898;28;1417;-62
2021/09/05 12:01:48;;;;;;;;;;;;;;;19.72;58.98;101900.31;5015224;28;1267;-62
2021/09/05 12:04:13;;;;;;;;;;;;;;;19.73;58.20;101902.88;5014844;28;795;-62
2021/09/05 12:06:38;;;;;;;;;;;;;;;19.72;58.71;101903.00;5014543;28;1692;-62
2021/09/05 12:09:03;;;;;;;;;;;;;;;19.74;58.47;101899.19;5014420;28;1914;-62
2021/09/05 12:11:28;;;;;;;;;;;;;;;19.79;58.37;101900.63;5014691;28;851;-62
2021/09/05 12:13:57;;;;;;;;;;;;;;;19.85;58.83;101902.81;5014595;28;1021;-62
2021/09/05 12:16:22;;;;;;;;;;;;;;;19.91;58.51;101907.69;5017387;28;1732;-62
2021/09/05 12:18:47;;;;;;;;;;;;;;;19.86;58.22;101909.94;5018838;28;1668;-63
2021/09/05 12:21:13;;;;;;;;;;;;;;;19.88;58.50;101908.84;5019477;28;1759;-62
2021/09/05 12:23:39;;;;;;;;;;;;;;;19.93;58.23;101911.97;5019096;28;1557;-62
2021/09/05 12:26:04;;;;;;;;;;;;;;;19.96;58.58;101905.44;5018228;28;1558;-63
2021/09/05 12:28:29;;;;;;;;;;;;;;;20.01;59.01;101908.59;5018362;28;1615;-63
2021/09/05 12:30:54;;;;;;;;;;;;;;;19.98;58.00;101904.31;5018614;28;1906;-63
2021/09/05 12:33:19;;;;;;;;;;;;;;;20.02;58.30;101900.34;5018086;28;2020;-63
2021/09/05 12:35:44;;;;;;;;;;;;;;;20.08;58.54;101909.75;5018569;28;879;-63
2021/09/05 12:38:09;;;;;;;;;;;;;;;20.11;57.75;101906.78;5018584;28;926;-65
2021/09/05 12:40:35;;;;;;;;;;;;;;;20.13;57.68;101902.09;5018734;28;1769;-63